sensor_id;sensor_type;location;lat;lon;timestamp;temperature;humidity
3208;DHT22;1616;52.394;9.756;2023-02-19T00:00:59;10.30;1.00
3208;DHT22;1616;52.394;9.756;2023-02-19T00:03:26;10.30;1.00
3208;DHT22;1616;52.394;9.756;2023-02-19T00:05:52;10.30;1.00
3208;DHT22;1616;52.394;9.756;2023-02-19T00:08:18;10.30;1.00
3208;DHT22;1616;52.394;9.756;2023-02-19T00:10:44;10.30;1.00
3208;DHT22;1616;52.394;9.756;2023-02-19T00:13:09;10.40;1.00
3208;DHT22;1616;52.394;9.756;2023-02-19T00:15:35;10.30;1.00
3208;DHT22;1616;52.394;9.756;2023-02-19T00:18:01;10.40;1.00
3208;DHT22;1616;52.394;9.756;2023-02-19T00:20:26;10.30;1.00
3208;DHT22;1616;52.394;9.756;2023-02-19T00:22:52;10.40;1.00
3208;DHT22;1616;52.394;9.756;2023-02-19T00:25:17;10.40;1.00
3208;DHT22;1616;52.394;9.756;2023-02-19T00:27:43;10.40;1.00
3208;DHT22;1616;52.394;9.756;2023-02-19T00:30:10;10.50;1.00
3208;DHT22;1616;52.394;9.756;2023-02-19T00:32:35;10.50;1.00
3208;DHT22;1616;52.394;9.756;2023-02-19T00:35:01;10.50;1.00
3208;DHT22;1616;52.394;9.756;2023-02-19T00:37:27;10.50;1.00
3208;DHT22;1616;52.394;9.756;2023-02-19T00:39:52;10.50;1.00
3208;DHT22;1616;52.394;9.756;2023-02-19T00:42:18;10.60;1.00
3208;DHT22;1616;52.394;9.756;2023-02-19T00:44:43;10.60;1.00
3208;DHT22;1616;52.394;9.756;2023-02-19T00:47:09;10.60;1.00
3208;DHT22;1616;52.394;9.756;2023-02-19T00:49:34;10.50;1.00
3208;DHT22;1616;52.394;9.756;2023-02-19T00:52:00;10.40;1.00
3208;DHT22;1616;52.394;9.756;2023-02-19T00:54:25;10.30;1.00
3208;DHT22;1616;52.394;9.756;2023-02-19T00:56:52;10.10;1.00
3208;DHT22;1616;52.394;9.756;2023-02-19T00:59:17;10.10;1.00
3208;DHT22;1616;52.394;9.756;2023-02-19T01:01:43;10.00;1.00
3208;DHT22;1616;52.394;9.756;2023-02-19T01:04:09;10.00;1.00
3208;DHT22;1616;52.394;9.756;2023-02-19T01:06:35;9.90;1.00
3208;DHT22;1616;52.394;9.756;2023-02-19T01:09:02;9.90;1.00
3208;DHT22;1616;52.394;9.756;2023-02-19T01:11:28;9.90;1.00
3208;DHT22;1616;52.394;9.756;2023-02-19T01:13:58;9.90;1.00
3208;DHT22;1616;52.394;9.756;2023-02-19T01:16:24;9.90;1.00
3208;DHT22;1616;52.394;9.756;2023-02-19T01:18:50;9.90;1.00
3208;DHT22;1616;52.394;9.756;2023-02-19T01:21:21;9.90;1.00
3208;DHT22;1616;52.394;9.756;2023-02-19T01:23:48;9.90;1.00
3208;DHT22;1616;52.394;9.756;2023-02-19T01:26:16;9.90;1.00
3208;DHT22;1616;52.394;9.756;2023-02-19T01:28:43;9.80;1.30
3208;DHT22;1616;52.394;9.756;2023-02-19T01:31:12;9.80;1.00
3208;DHT22;1616;52.394;9.756;2023-02-19T01:33:38;9.80;1.10
3208;DHT22;1616;52.394;9.756;2023-02-19T01:36:04;9.80;1.10
3208;DHT22;1616;52.394;9.756;2023-02-19T01:38:30;9.80;1.20
3208;DHT22;1616;52.394;9.756;2023-02-19T01:40:58;9.80;1.30
3208;DHT22;1616;52.394;9.756;2023-02-19T01:43:24;9.80;1.50
3208;DHT22;1616;52.394;9.756;2023-02-19T01:45:50;9.70;1.50
3208;DHT22;1616;52.394;9.756;2023-02-19T01:48:29;9.50;1.10
3208;DHT22;1616;52.394;9.756;2023-02-19T01:53:30;9.50;1.20
3208;DHT22;1616;52.394;9.756;2023-02-19T01:55:59;9.50;1.30
3208;DHT22;1616;52.394;9.756;2023-02-19T01:58:27;9.30;1.40
3208;DHT22;1616;52.394;9.756;2023-02-19T02:00:54;9.40;1.50
3208;DHT22;1616;52.394;9.756;2023-02-19T02:03:20;9.30;1.50
3208;DHT22;1616;52.394;9.756;2023-02-19T02:06:00;9.30;1.60
3208;DHT22;1616;52.394;9.756;2023-02-19T02:08:26;9.20;1.70
3208;DHT22;1616;52.394;9.756;2023-02-19T02:11:11;9.20;1.80
3208;DHT22;1616;52.394;9.756;2023-02-19T02:13:38;9.10;1.90
3208;DHT22;1616;52.394;9.756;2023-02-19T02:22:18;9.10;2.50
3208;DHT22;1616;52.394;9.756;2023-02-19T02:27:49;9.00;2.50
3208;DHT22;1616;52.394;9.756;2023-02-19T02:30:32;9.00;2.90
3208;DHT22;1616;52.394;9.756;2023-02-19T02:33:31;9.00;2.90
3208;DHT22;1616;52.394;9.756;2023-02-19T02:36:06;9.00;3.00
3208;DHT22;1616;52.394;9.756;2023-02-19T02:38:35;9.00;3.30
3208;DHT22;1616;52.394;9.756;2023-02-19T02:41:03;9.00;3.60
3208;DHT22;1616;52.394;9.756;2023-02-19T02:43:29;9.00;3.70
3208;DHT22;1616;52.394;9.756;2023-02-19T02:45:55;9.00;3.90
3208;DHT22;1616;52.394;9.756;2023-02-19T02:48:29;9.10;4.00
3208;DHT22;1616;52.394;9.756;2023-02-19T02:53:56;9.10;4.00
3208;DHT22;1616;52.394;9.756;2023-02-19T02:56:42;9.10;4.00
3208;DHT22;1616;52.394;9.756;2023-02-19T02:59:10;9.20;4.20
3208;DHT22;1616;52.394;9.756;2023-02-19T03:02:16;9.10;4.20
3208;DHT22;1616;52.394;9.756;2023-02-19T03:04:51;9.10;4.30
3208;DHT22;1616;52.394;9.756;2023-02-19T03:08:01;9.20;4.50
3208;DHT22;1616;52.394;9.756;2023-02-19T03:10:50;9.20;4.60
3208;DHT22;1616;52.394;9.756;2023-02-19T03:13:34;9.20;4.90
3208;DHT22;1616;52.394;9.756;2023-02-19T03:16:25;9.30;5.30
3208;DHT22;1616;52.394;9.756;2023-02-19T03:19:14;9.30;5.60
3208;DHT22;1616;52.394;9.756;2023-02-19T03:21:51;9.30;4.10
3208;DHT22;1616;52.394;9.756;2023-02-19T03:24:21;9.20;2.50
3208;DHT22;1616;52.394;9.756;2023-02-19T03:27:08;9.10;1.70
3208;DHT22;1616;52.394;9.756;2023-02-19T03:29:36;8.90;1.30
3208;DHT22;1616;52.394;9.756;2023-02-19T03:32:08;8.70;1.20
3208;DHT22;1616;52.394;9.756;2023-02-19T03:34:49;8.50;1.10
3208;DHT22;1616;52.394;9.756;2023-02-19T03:37:26;8.40;1.50
3208;DHT22;1616;52.394;9.756;2023-02-19T03:39:53;8.30;1.60
3208;DHT22;1616;52.394;9.756;2023-02-19T03:42:57;8.20;1.70
3208;DHT22;1616;52.394;9.756;2023-02-19T03:45:54;8.20;2.00
3208;DHT22;1616;52.394;9.756;2023-02-19T03:48:36;8.20;2.20
3208;DHT22;1616;52.394;9.756;2023-02-19T03:56:51;8.00;2.80
3208;DHT22;1616;52.394;9.756;2023-02-19T04:00:08;8.00;3.30
3208;DHT22;1616;52.394;9.756;2023-02-19T04:02:37;8.00;2.40
3208;DHT22;1616;52.394;9.756;2023-02-19T04:05:18;7.90;2.50
3208;DHT22;1616;52.394;9.756;2023-02-19T04:07:48;7.90;2.70
3208;DHT22;1616;52.394;9.756;2023-02-19T04:10:16;7.80;2.70
3208;DHT22;1616;52.394;9.756;2023-02-19T04:12:47;7.80;3.20
3208;DHT22;1616;52.394;9.756;2023-02-19T04:15:20;7.70;3.10
3208;DHT22;1616;52.394;9.756;2023-02-19T04:17:58;7.80;3.20
3208;DHT22;1616;52.394;9.756;2023-02-19T04:20:27;7.70;3.10
3208;DHT22;1616;52.394;9.756;2023-02-19T04:22:54;7.70;3.10
3208;DHT22;1616;52.394;9.756;2023-02-19T04:25:21;7.70;3.10
3208;DHT22;1616;52.394;9.756;2023-02-19T04:27:48;7.60;2.70
3208;DHT22;1616;52.394;9.756;2023-02-19T04:30:14;7.60;2.70
3208;DHT22;1616;52.394;9.756;2023-02-19T04:32:40;7.50;3.00
3208;DHT22;1616;52.394;9.756;2023-02-19T04:35:05;7.50;3.00
3208;DHT22;1616;52.394;9.756;2023-02-19T04:37:31;7.50;2.90
3208;DHT22;1616;52.394;9.756;2023-02-19T04:39:57;7.40;2.80
3208;DHT22;1616;52.394;9.756;2023-02-19T04:42:22;7.40;2.70
3208;DHT22;1616;52.394;9.756;2023-02-19T04:44:48;7.30;2.90
3208;DHT22;1616;52.394;9.756;2023-02-19T04:47:13;7.40;2.90
3208;DHT22;1616;52.394;9.756;2023-02-19T04:49:43;7.30;2.90
3208;DHT22;1616;52.394;9.756;2023-02-19T04:52:09;7.30;3.40
3208;DHT22;1616;52.394;9.756;2023-02-19T04:54:35;7.30;2.90
3208;DHT22;1616;52.394;9.756;2023-02-19T04:57:00;7.30;2.70
3208;DHT22;1616;52.394;9.756;2023-02-19T04:59:26;7.30;2.50
3208;DHT22;1616;52.394;9.756;2023-02-19T05:01:51;7.20;2.70
3208;DHT22;1616;52.394;9.756;2023-02-19T05:04:18;7.20;2.50
3208;DHT22;1616;52.394;9.756;2023-02-19T05:06:44;7.10;2.20
3208;DHT22;1616;52.394;9.756;2023-02-19T05:09:09;7.10;2.50
3208;DHT22;1616;52.394;9.756;2023-02-19T05:11:37;7.00;2.70
3208;DHT22;1616;52.394;9.756;2023-02-19T05:14:03;7.00;2.70
3208;DHT22;1616;52.394;9.756;2023-02-19T05:16:28;7.00;2.70
3208;DHT22;1616;52.394;9.756;2023-02-19T05:18:54;6.90;2.70
3208;DHT22;1616;52.394;9.756;2023-02-19T05:21:20;7.00;2.70
3208;DHT22;1616;52.394;9.756;2023-02-19T05:23:45;6.90;2.70
3208;DHT22;1616;52.394;9.756;2023-02-19T05:26:14;6.90;2.70
3208;DHT22;1616;52.394;9.756;2023-02-19T05:28:45;6.80;2.60
3208;DHT22;1616;52.394;9.756;2023-02-19T05:31:11;6.80;2.60
3208;DHT22;1616;52.394;9.756;2023-02-19T05:33:37;6.80;2.00
3208;DHT22;1616;52.394;9.756;2023-02-19T05:36:08;6.70;2.00
3208;DHT22;1616;52.394;9.756;2023-02-19T05:38:34;6.70;2.30
3208;DHT22;1616;52.394;9.756;2023-02-19T05:41:25;6.70;2.50
3208;DHT22;1616;52.394;9.756;2023-02-19T05:43:53;6.60;2.50
3208;DHT22;1616;52.394;9.756;2023-02-19T05:46:22;6.60;2.40
3208;DHT22;1616;52.394;9.756;2023-02-19T05:48:50;6.60;2.50
3208;DHT22;1616;52.394;9.756;2023-02-19T05:51:17;6.50;2.40
3208;DHT22;1616;52.394;9.756;2023-02-19T05:53:44;6.60;2.40
3208;DHT22;1616;52.394;9.756;2023-02-19T05:58:52;6.50;2.40
3208;DHT22;1616;52.394;9.756;2023-02-19T06:01:21;6.50;1.90
3208;DHT22;1616;52.394;9.756;2023-02-19T06:03:47;6.40;1.70
3208;DHT22;1616;52.394;9.756;2023-02-19T06:06:14;6.40;1.50
3208;DHT22;1616;52.394;9.756;2023-02-19T06:08:39;6.30;1.20
3208;DHT22;1616;52.394;9.756;2023-02-19T06:11:05;6.20;1.00
3208;DHT22;1616;52.394;9.756;2023-02-19T06:13:30;6.10;1.00
3208;DHT22;1616;52.394;9.756;2023-02-19T06:15:56;6.00;1.00
3208;DHT22;1616;52.394;9.756;2023-02-19T06:18:28;6.00;1.00
3208;DHT22;1616;52.394;9.756;2023-02-19T06:21:01;5.90;1.00
3208;DHT22;1616;52.394;9.756;2023-02-19T06:23:28;5.80;1.00
3208;DHT22;1616;52.394;9.756;2023-02-19T06:25:54;5.80;1.30
3208;DHT22;1616;52.394;9.756;2023-02-19T06:28:20;5.80;1.30
3208;DHT22;1616;52.394;9.756;2023-02-19T06:30:46;5.70;1.00
3208;DHT22;1616;52.394;9.756;2023-02-19T06:33:12;5.70;1.10
3208;DHT22;1616;52.394;9.756;2023-02-19T06:35:39;5.60;1.10
3208;DHT22;1616;52.394;9.756;2023-02-19T06:38:08;5.60;1.40
3208;DHT22;1616;52.394;9.756;2023-02-19T06:40:34;5.60;1.60
3208;DHT22;1616;52.394;9.756;2023-02-19T06:42:59;5.60;1.80
3208;DHT22;1616;52.394;9.756;2023-02-19T06:45:25;5.50;1.80
3208;DHT22;1616;52.394;9.756;2023-02-19T06:47:50;5.50;1.80
3208;DHT22;1616;52.394;9.756;2023-02-19T06:50:16;5.50;1.80
3208;DHT22;1616;52.394;9.756;2023-02-19T06:52:42;5.50;1.80
3208;DHT22;1616;52.394;9.756;2023-02-19T06:55:08;5.50;1.80
3208;DHT22;1616;52.394;9.756;2023-02-19T06:57:34;5.40;2.20
3208;DHT22;1616;52.394;9.756;2023-02-19T06:59:59;5.40;1.70
3208;DHT22;1616;52.394;9.756;2023-02-19T07:02:25;5.40;1.70
3208;DHT22;1616;52.394;9.756;2023-02-19T07:04:51;5.40;1.80
3208;DHT22;1616;52.394;9.756;2023-02-19T07:07:16;5.40;1.80
3208;DHT22;1616;52.394;9.756;2023-02-19T07:09:42;5.40;1.70
3208;DHT22;1616;52.394;9.756;2023-02-19T07:12:07;5.40;1.70
3208;DHT22;1616;52.394;9.756;2023-02-19T07:14:34;5.40;1.80
3208;DHT22;1616;52.394;9.756;2023-02-19T07:16:59;5.40;2.30
3208;DHT22;1616;52.394;9.756;2023-02-19T07:19:25;5.40;2.40
3208;DHT22;1616;52.394;9.756;2023-02-19T07:21:51;5.40;2.60
3208;DHT22;1616;52.394;9.756;2023-02-19T07:24:18;5.50;2.50
3208;DHT22;1616;52.394;9.756;2023-02-19T07:26:46;5.40;2.40
3208;DHT22;1616;52.394;9.756;2023-02-19T07:29:11;5.50;2.70
3208;DHT22;1616;52.394;9.756;2023-02-19T07:31:37;5.50;2.90
3208;DHT22;1616;52.394;9.756;2023-02-19T07:34:03;5.50;2.90
3208;DHT22;1616;52.394;9.756;2023-02-19T07:36:28;5.60;3.20
3208;DHT22;1616;52.394;9.756;2023-02-19T07:38:58;5.60;3.20
3208;DHT22;1616;52.394;9.756;2023-02-19T07:41:25;5.60;3.00
3208;DHT22;1616;52.394;9.756;2023-02-19T07:43:52;5.60;3.00
3208;DHT22;1616;52.394;9.756;2023-02-19T07:46:18;5.60;2.90
3208;DHT22;1616;52.394;9.756;2023-02-19T07:48:44;5.60;3.30
3208;DHT22;1616;52.394;9.756;2023-02-19T07:51:15;5.70;3.40
3208;DHT22;1616;52.394;9.756;2023-02-19T07:53:44;5.70;3.40
3208;DHT22;1616;52.394;9.756;2023-02-19T07:56:11;5.80;4.30
3208;DHT22;1616;52.394;9.756;2023-02-19T07:58:37;5.80;4.60
3208;DHT22;1616;52.394;9.756;2023-02-19T08:01:29;5.90;4.90
3208;DHT22;1616;52.394;9.756;2023-02-19T08:04:14;6.00;5.40
3208;DHT22;1616;52.394;9.756;2023-02-19T08:06:40;6.20;6.10
3208;DHT22;1616;52.394;9.756;2023-02-19T08:09:06;6.30;6.20
3208;DHT22;1616;52.394;9.756;2023-02-19T08:11:32;6.40;6.30
3208;DHT22;1616;52.394;9.756;2023-02-19T08:14:16;6.40;6.40
3208;DHT22;1616;52.394;9.756;2023-02-19T08:16:50;6.50;5.90
3208;DHT22;1616;52.394;9.756;2023-02-19T08:19:16;6.60;5.10
3208;DHT22;1616;52.394;9.756;2023-02-19T08:21:41;6.60;4.60
3208;DHT22;1616;52.394;9.756;2023-02-19T08:24:07;6.70;4.30
3208;DHT22;1616;52.394;9.756;2023-02-19T08:26:33;6.70;3.70
3208;DHT22;1616;52.394;9.756;2023-02-19T08:28:59;6.70;3.80
3208;DHT22;1616;52.394;9.756;2023-02-19T08:31:25;6.70;3.90
3208;DHT22;1616;52.394;9.756;2023-02-19T08:33:51;6.80;4.50
3208;DHT22;1616;52.394;9.756;2023-02-19T08:36:17;6.80;5.10
3208;DHT22;1616;52.394;9.756;2023-02-19T08:38:42;6.90;5.70
3208;DHT22;1616;52.394;9.756;2023-02-19T08:41:10;7.10;5.80
3208;DHT22;1616;52.394;9.756;2023-02-19T08:43:36;7.10;5.90
3208;DHT22;1616;52.394;9.756;2023-02-19T08:46:02;7.20;6.20
3208;DHT22;1616;52.394;9.756;2023-02-19T08:48:28;7.40;6.80
3208;DHT22;1616;52.394;9.756;2023-02-19T08:51:03;7.50;7.50
3208;DHT22;1616;52.394;9.756;2023-02-19T08:53:30;7.80;9.20
3208;DHT22;1616;52.394;9.756;2023-02-19T08:55:56;8.10;11.60
3208;DHT22;1616;52.394;9.756;2023-02-19T08:58:22;8.50;14.10
3208;DHT22;1616;52.394;9.756;2023-02-19T09:00:50;9.00;18.60
3208;DHT22;1616;52.394;9.756;2023-02-19T09:03:17;9.60;17.10
3208;DHT22;1616;52.394;9.756;2023-02-19T09:05:43;10.30;19.10
3208;DHT22;1616;52.394;9.756;2023-02-19T09:08:11;11.40;23.20
3208;DHT22;1616;52.394;9.756;2023-02-19T09:10:37;12.80;25.20
3208;DHT22;1616;52.394;9.756;2023-02-19T09:13:03;13.70;18.70
3208;DHT22;1616;52.394;9.756;2023-02-19T09:15:29;14.00;1.90
3208;DHT22;1616;52.394;9.756;2023-02-19T09:17:55;14.00;1.00
3208;DHT22;1616;52.394;9.756;2023-02-19T09:20:21;13.90;1.00
3208;DHT22;1616;52.394;9.756;2023-02-19T09:22:47;14.10;1.00
3208;DHT22;1616;52.394;9.756;2023-02-19T09:25:12;14.20;1.00
3208;DHT22;1616;52.394;9.756;2023-02-19T09:27:38;14.00;1.00
3208;DHT22;1616;52.394;9.756;2023-02-19T09:30:03;13.80;1.00
3208;DHT22;1616;52.394;9.756;2023-02-19T09:32:30;13.40;1.00
3208;DHT22;1616;52.394;9.756;2023-02-19T09:34:56;13.20;1.00
3208;DHT22;1616;52.394;9.756;2023-02-19T09:37:25;13.10;1.00
3208;DHT22;1616;52.394;9.756;2023-02-19T09:39:52;13.00;1.00
3208;DHT22;1616;52.394;9.756;2023-02-19T09:42:21;12.80;1.00
3208;DHT22;1616;52.394;9.756;2023-02-19T09:44:51;12.70;1.00
3208;DHT22;1616;52.394;9.756;2023-02-19T09:47:22;13.00;1.00
3208;DHT22;1616;52.394;9.756;2023-02-19T09:50:12;13.20;1.00
3208;DHT22;1616;52.394;9.756;2023-02-19T09:52:40;13.20;1.00
3208;DHT22;1616;52.394;9.756;2023-02-19T09:55:30;13.20;1.00
3208;DHT22;1616;52.394;9.756;2023-02-19T09:58:00;13.30;1.00
3208;DHT22;1616;52.394;9.756;2023-02-19T10:00:28;13.20;1.00
3208;DHT22;1616;52.394;9.756;2023-02-19T10:03:04;13.10;1.00
3208;DHT22;1616;52.394;9.756;2023-02-19T10:05:31;13.30;1.00
3208;DHT22;1616;52.394;9.756;2023-02-19T10:07:58;14.10;1.00
3208;DHT22;1616;52.394;9.756;2023-02-19T10:10:33;14.60;1.00
3208;DHT22;1616;52.394;9.756;2023-02-19T10:13:20;14.80;1.00
3208;DHT22;1616;52.394;9.756;2023-02-19T10:15:55;14.70;1.00
3208;DHT22;1616;52.394;9.756;2023-02-19T10:18:23;14.50;1.00
3208;DHT22;1616;52.394;9.756;2023-02-19T10:20:50;14.30;1.00
3208;DHT22;1616;52.394;9.756;2023-02-19T10:23:17;13.90;1.00
3208;DHT22;1616;52.394;9.756;2023-02-19T10:25:48;13.60;1.00
3208;DHT22;1616;52.394;9.756;2023-02-19T10:28:21;13.30;1.00
3208;DHT22;1616;52.394;9.756;2023-02-19T10:30:52;13.00;1.00
3208;DHT22;1616;52.394;9.756;2023-02-19T10:33:18;12.90;1.00
3208;DHT22;1616;52.394;9.756;2023-02-19T10:38:19;13.10;1.00
3208;DHT22;1616;52.394;9.756;2023-02-19T10:40:46;13.20;1.00
3208;DHT22;1616;52.394;9.756;2023-02-19T10:43:25;13.40;1.00
3208;DHT22;1616;52.394;9.756;2023-02-19T10:45:57;13.60;1.00
3208;DHT22;1616;52.394;9.756;2023-02-19T10:48:27;13.90;1.00
3208;DHT22;1616;52.394;9.756;2023-02-19T10:50:58;14.70;1.00
3208;DHT22;1616;52.394;9.756;2023-02-19T10:53:43;15.20;1.00
3208;DHT22;1616;52.394;9.756;2023-02-19T10:56:21;15.60;1.00
3208;DHT22;1616;52.394;9.756;2023-02-19T10:58:48;15.70;1.00
3208;DHT22;1616;52.394;9.756;2023-02-19T11:01:23;15.50;1.00
3208;DHT22;1616;52.394;9.756;2023-02-19T11:04:12;15.10;1.00
3208;DHT22;1616;52.394;9.756;2023-02-19T11:06:38;14.70;1.00
3208;DHT22;1616;52.394;9.756;2023-02-19T11:09:04;14.50;1.00
3208;DHT22;1616;52.394;9.756;2023-02-19T11:11:36;14.90;1.00
3208;DHT22;1616;52.394;9.756;2023-02-19T11:14:11;15.50;1.00
3208;DHT22;1616;52.394;9.756;2023-02-19T11:16:45;16.30;1.00
3208;DHT22;1616;52.394;9.756;2023-02-19T11:19:29;17.30;1.00
3208;DHT22;1616;52.394;9.756;2023-02-19T11:21:57;18.30;1.00
3208;DHT22;1616;52.394;9.756;2023-02-19T11:24:33;18.50;1.00
3208;DHT22;1616;52.394;9.756;2023-02-19T11:27:04;18.20;1.00
3208;DHT22;1616;52.394;9.756;2023-02-19T11:29:31;18.30;1.00
3208;DHT22;1616;52.394;9.756;2023-02-19T11:34:47;19.30;1.00
3208;DHT22;1616;52.394;9.756;2023-02-19T11:37:18;19.80;1.00
3208;DHT22;1616;52.394;9.756;2023-02-19T11:39:49;20.10;1.00
3208;DHT22;1616;52.394;9.756;2023-02-19T11:42:29;19.70;1.00
3208;DHT22;1616;52.394;9.756;2023-02-19T11:45:34;18.90;1.00
3208;DHT22;1616;52.394;9.756;2023-02-19T11:53:34;17.90;1.00
3208;DHT22;1616;52.394;9.756;2023-02-19T11:56:25;18.60;1.00
3208;DHT22;1616;52.394;9.756;2023-02-19T11:59:11;19.60;1.00
3208;DHT22;1616;52.394;9.756;2023-02-19T12:09:47;20.80;1.00
3208;DHT22;1616;52.394;9.756;2023-02-19T12:15:17;20.50;1.00
3208;DHT22;1616;52.394;9.756;2023-02-19T12:20:47;20.30;1.00
3208;DHT22;1616;52.394;9.756;2023-02-19T12:23:37;20.40;1.00
3208;DHT22;1616;52.394;9.756;2023-02-19T12:26:26;20.50;1.00
3208;DHT22;1616;52.394;9.756;2023-02-19T12:39:57;18.30;1.00
3208;DHT22;1616;52.394;9.756;2023-02-19T12:45:26;16.90;1.00
3208;DHT22;1616;52.394;9.756;2023-02-19T12:50:39;15.90;1.00
3208;DHT22;1616;52.394;9.756;2023-02-19T12:56:12;16.40;1.00
3208;DHT22;1616;52.394;9.756;2023-02-19T12:58:49;16.90;1.00
3208;DHT22;1616;52.394;9.756;2023-02-19T13:01:25;16.90;1.00
3208;DHT22;1616;52.394;9.756;2023-02-19T13:04:09;16.50;1.00
3208;DHT22;1616;52.394;9.756;2023-02-19T13:09:21;15.70;1.00
3208;DHT22;1616;52.394;9.756;2023-02-19T13:12:04;15.60;1.00
3208;DHT22;1616;52.394;9.756;2023-02-19T13:14:47;15.50;1.00
3208;DHT22;1616;52.394;9.756;2023-02-19T13:17:18;15.40;1.00
3208;DHT22;1616;52.394;9.756;2023-02-19T13:19:47;15.10;1.00
3208;DHT22;1616;52.394;9.756;2023-02-19T13:22:29;14.90;1.00
3208;DHT22;1616;52.394;9.756;2023-02-19T13:25:16;14.60;1.00
3208;DHT22;1616;52.394;9.756;2023-02-19T13:28:08;14.50;1.00
3208;DHT22;1616;52.394;9.756;2023-02-19T13:30:47;14.20;1.00
3208;DHT22;1616;52.394;9.756;2023-02-19T13:33:29;14.00;1.00
3208;DHT22;1616;52.394;9.756;2023-02-19T13:36:13;13.70;1.00
3208;DHT22;1616;52.394;9.756;2023-02-19T13:38:45;13.30;1.00
3208;DHT22;1616;52.394;9.756;2023-02-19T13:41:38;13.20;1.00
3208;DHT22;1616;52.394;9.756;2023-02-19T13:44:06;13.00;1.00
3208;DHT22;1616;52.394;9.756;2023-02-19T13:46:38;12.80;1.00
3208;DHT22;1616;52.394;9.756;2023-02-19T13:49:38;12.60;1.00
3208;DHT22;1616;52.394;9.756;2023-02-19T14:03:38;11.70;1.00
3208;DHT22;1616;52.394;9.756;2023-02-19T14:06:07;11.60;1.00
3208;DHT22;1616;52.394;9.756;2023-02-19T14:08:56;11.60;1.00
3208;DHT22;1616;52.394;9.756;2023-02-19T14:14:35;11.40;1.00
3208;DHT22;1616;52.394;9.756;2023-02-19T14:17:03;11.40;1.00
3208;DHT22;1616;52.394;9.756;2023-02-19T14:19:50;11.30;1.00
3208;DHT22;1616;52.394;9.756;2023-02-19T14:25:41;12.10;1.00
3208;DHT22;1616;52.394;9.756;2023-02-19T14:28:35;11.20;1.00
3208;DHT22;1616;52.394;9.756;2023-02-19T14:31:29;11.20;1.00
3208;DHT22;1616;52.394;9.756;2023-02-19T14:34:05;11.20;1.00
3208;DHT22;1616;52.394;9.756;2023-02-19T14:36:41;11.30;1.00
3208;DHT22;1616;52.394;9.756;2023-02-19T14:39:13;11.20;1.00
3208;DHT22;1616;52.394;9.756;2023-02-19T14:41:43;11.20;1.00
3208;DHT22;1616;52.394;9.756;2023-02-19T14:44:21;11.60;1.00
3208;DHT22;1616;52.394;9.756;2023-02-19T14:47:07;11.70;1.00
3208;DHT22;1616;52.394;9.756;2023-02-19T14:52:18;11.60;1.00
3208;DHT22;1616;52.394;9.756;2023-02-19T14:54:54;11.60;1.00
3208;DHT22;1616;52.394;9.756;2023-02-19T14:57:29;11.40;1.00
3208;DHT22;1616;52.394;9.756;2023-02-19T14:59:58;11.30;1.00
3208;DHT22;1616;52.394;9.756;2023-02-19T15:02:26;11.10;1.00
3208;DHT22;1616;52.394;9.756;2023-02-19T15:04:53;10.90;1.00
3208;DHT22;1616;52.394;9.756;2023-02-19T15:07:28;10.60;1.00
3208;DHT22;1616;52.394;9.756;2023-02-19T15:09:57;10.40;1.00
3208;DHT22;1616;52.394;9.756;2023-02-19T15:12:31;10.30;1.00
3208;DHT22;1616;52.394;9.756;2023-02-19T15:15:01;10.20;1.00
3208;DHT22;1616;52.394;9.756;2023-02-19T15:17:31;10.00;1.00
3208;DHT22;1616;52.394;9.756;2023-02-19T15:20:02;9.90;1.00
3208;DHT22;1616;52.394;9.756;2023-02-19T15:22:31;9.80;1.00
3208;DHT22;1616;52.394;9.756;2023-02-19T15:25:03;9.80;1.00
3208;DHT22;1616;52.394;9.756;2023-02-19T15:27:30;9.80;1.00
3208;DHT22;1616;52.394;9.756;2023-02-19T15:29:57;9.80;1.00
3208;DHT22;1616;52.394;9.756;2023-02-19T15:32:26;9.80;1.00
3208;DHT22;1616;52.394;9.756;2023-02-19T15:34:57;9.90;1.00
3208;DHT22;1616;52.394;9.756;2023-02-19T15:37:28;9.90;1.00
3208;DHT22;1616;52.394;9.756;2023-02-19T15:39:56;9.90;1.00
3208;DHT22;1616;52.394;9.756;2023-02-19T15:42:25;9.90;1.00
3208;DHT22;1616;52.394;9.756;2023-02-19T15:44:54;9.80;1.00
3208;DHT22;1616;52.394;9.756;2023-02-19T15:47:45;9.70;1.00
3208;DHT22;1616;52.394;9.756;2023-02-19T15:50:25;9.70;1.00
3208;DHT22;1616;52.394;9.756;2023-02-19T15:52:57;9.50;1.00
3208;DHT22;1616;52.394;9.756;2023-02-19T15:55:33;9.30;1.00
3208;DHT22;1616;52.394;9.756;2023-02-19T15:58:22;9.30;1.00
3208;DHT22;1616;52.394;9.756;2023-02-19T16:00:54;9.20;1.00
3208;DHT22;1616;52.394;9.756;2023-02-19T16:03:23;9.00;1.00
3208;DHT22;1616;52.394;9.756;2023-02-19T16:06:05;8.90;1.00
3208;DHT22;1616;52.394;9.756;2023-02-19T16:08:37;8.90;1.00
3208;DHT22;1616;52.394;9.756;2023-02-19T16:11:06;8.70;1.00
3208;DHT22;1616;52.394;9.756;2023-02-19T16:13:33;8.70;1.00
3208;DHT22;1616;52.394;9.756;2023-02-19T16:16:27;8.60;1.00
3208;DHT22;1616;52.394;9.756;2023-02-19T16:18:57;8.40;1.00
3208;DHT22;1616;52.394;9.756;2023-02-19T16:21:25;8.40;1.00
3208;DHT22;1616;52.394;9.756;2023-02-19T16:24:02;8.20;1.00
3208;DHT22;1616;52.394;9.756;2023-02-19T16:26:29;8.10;1.00
3208;DHT22;1616;52.394;9.756;2023-02-19T16:28:56;8.00;1.00
3208;DHT22;1616;52.394;9.756;2023-02-19T16:31:22;7.90;1.00
3208;DHT22;1616;52.394;9.756;2023-02-19T16:33:49;7.90;1.00
3208;DHT22;1616;52.394;9.756;2023-02-19T16:36:23;7.80;1.00
3208;DHT22;1616;52.394;9.756;2023-02-19T16:46:50;7.60;1.00
3208;DHT22;1616;52.394;9.756;2023-02-19T16:49:17;7.50;1.00
3208;DHT22;1616;52.394;9.756;2023-02-19T16:51:44;7.40;1.00
3208;DHT22;1616;52.394;9.756;2023-02-19T16:54:11;7.30;1.00
3208;DHT22;1616;52.394;9.756;2023-02-19T16:56:37;7.30;1.00
3208;DHT22;1616;52.394;9.756;2023-02-19T16:59:04;7.20;1.00
3208;DHT22;1616;52.394;9.756;2023-02-19T17:01:32;7.20;1.00
3208;DHT22;1616;52.394;9.756;2023-02-19T17:04:10;7.10;1.00
3208;DHT22;1616;52.394;9.756;2023-02-19T17:06:36;7.10;1.00
3208;DHT22;1616;52.394;9.756;2023-02-19T17:09:03;7.00;1.00
3208;DHT22;1616;52.394;9.756;2023-02-19T17:11:31;6.90;1.00
3208;DHT22;1616;52.394;9.756;2023-02-19T17:13:59;6.90;1.00
3208;DHT22;1616;52.394;9.756;2023-02-19T17:16:27;6.90;1.00
3208;DHT22;1616;52.394;9.756;2023-02-19T17:18:54;6.90;1.00
3208;DHT22;1616;52.394;9.756;2023-02-19T17:21:27;6.80;1.00
3208;DHT22;1616;52.394;9.756;2023-02-19T17:23:53;6.80;1.00
3208;DHT22;1616;52.394;9.756;2023-02-19T17:26:23;6.70;1.00
3208;DHT22;1616;52.394;9.756;2023-02-19T17:28:49;6.70;1.00
3208;DHT22;1616;52.394;9.756;2023-02-19T17:31:15;6.70;1.00
3208;DHT22;1616;52.394;9.756;2023-02-19T17:33:41;6.70;1.00
3208;DHT22;1616;52.394;9.756;2023-02-19T17:36:15;6.70;1.00
3208;DHT22;1616;52.394;9.756;2023-02-19T17:38:41;6.70;1.00
3208;DHT22;1616;52.394;9.756;2023-02-19T17:41:07;6.60;1.00
3208;DHT22;1616;52.394;9.756;2023-02-19T17:43:33;6.60;1.00
3208;DHT22;1616;52.394;9.756;2023-02-19T17:45:59;6.60;1.00
3208;DHT22;1616;52.394;9.756;2023-02-19T17:48:25;6.60;1.00
3208;DHT22;1616;52.394;9.756;2023-02-19T17:50:50;6.60;1.00
3208;DHT22;1616;52.394;9.756;2023-02-19T17:53:17;6.60;1.00
3208;DHT22;1616;52.394;9.756;2023-02-19T17:55:43;6.60;1.00
3208;DHT22;1616;52.394;9.756;2023-02-19T17:58:09;6.60;1.00
3208;DHT22;1616;52.394;9.756;2023-02-19T18:00:35;6.60;1.00
3208;DHT22;1616;52.394;9.756;2023-02-19T18:03:02;6.60;1.00
3208;DHT22;1616;52.394;9.756;2023-02-19T18:05:28;6.50;1.00
3208;DHT22;1616;52.394;9.756;2023-02-19T18:07:54;6.50;1.00
3208;DHT22;1616;52.394;9.756;2023-02-19T18:10:21;6.60;1.00
3208;DHT22;1616;52.394;9.756;2023-02-19T18:12:48;6.50;1.00
3208;DHT22;1616;52.394;9.756;2023-02-19T18:15:22;6.50;1.00
3208;DHT22;1616;52.394;9.756;2023-02-19T18:17:49;6.50;1.00
3208;DHT22;1616;52.394;9.756;2023-02-19T18:20:20;6.40;1.00
3208;DHT22;1616;52.394;9.756;2023-02-19T18:22:46;6.40;1.00
3208;DHT22;1616;52.394;9.756;2023-02-19T18:25:12;6.40;1.00
3208;DHT22;1616;52.394;9.756;2023-02-19T18:27:38;6.30;1.00
3208;DHT22;1616;52.394;9.756;2023-02-19T18:30:04;6.40;1.00